Time,TemperatureF,DewpointF,PressureIn,WindDirection,WindDirectionDegrees,WindSpeedMPH,WindSpeedGustMPH,Humidity,HourlyPrecipIn,Conditions,Clouds,dailyrainin,SoftwareType,DateUTC
2013-01-18 00:00:00,38.1,29.9,30.04,NNE,22,0.0,0.0,72,0.00,,OVC,0.00,VWS V14.00,2013-01-18 05:00:00,
2013-01-18 00:02:00,38.1,29.9,30.04,NNE,22,0.0,0.0,72,0.00,,OVC,0.00,VWS V14.00,2013-01-18 05:02:00,
2013-01-18 00:07:00,38.1,29.9,30.03,NNE,22,0.8,0.8,72,0.00,,OVC,0.00,VWS V14.00,2013-01-18 05:07:00,
2013-01-18 00:12:00,38.1,29.5,30.01,NNE,22,0.0,0.0,71,0.00,,OVC,0.00,VWS V14.00,2013-01-18 05:12:00,
2013-01-18 00:17:00,38.1,29.9,30.00,North,0,0.0,0.0,72,0.00,,OVC,0.00,VWS V14.00,2013-01-18 05:17:00,
2013-01-18 00:21:00,37.9,29.4,30.00,NNE,22,0.0,0.0,71,0.00,,OVC,0.00,VWS V14.00,2013-01-18 05:21:00,
2013-01-18 00:26:00,37.9,29.4,29.99,NE,45,0.0,0.0,71,0.00,,OVC,0.00,VWS V14.00,2013-01-18 05:26:00,
2013-01-18 00:31:00,37.9,29.4,30.00,NNE,22,0.0,0.0,71,0.00,,OVC,0.00,VWS V14.00,2013-01-18 05:31:00,
2013-01-18 00:36:00,37.9,29.7,30.02,NNE,22,0.0,0.0,72,0.00,,OVC,0.00,VWS V14.00,2013-01-18 05:36:00,
2013-01-18 00:41:00,37.9,29.7,30.01,North,0,0.0,0.0,72,0.00,,OVC,0.00,VWS V14.00,2013-01-18 05:41:00,
2013-01-18 00:46:00,37.9,29.7,30.00,North,0,0.0,0.0,72,0.00,,OVC,0.00,VWS V14.00,2013-01-18 05:46:00,
2013-01-18 00:52:00,37.9,29.7,30.01,NNE,22,0.0,0.0,72,0.00,,OVC,0.00,VWS V14.00,2013-01-18 05:52:00,
2013-01-18 00:57:00,37.9,30.0,30.02,NE,45,0.0,0.0,73,0.00,,OVC,0.00,VWS V14.00,2013-01-18 05:57:00,
2013-01-18 01:01:00,37.9,29.7,30.01,NE,45,1.7,1.7,72,0.00,,OVC,0.00,VWS V14.00,2013-01-18 06:01:00,
2013-01-18 01:06:00,37.9,30.0,30.02,NE,45,0.0,0.0,73,0.00,,OVC,0.00,VWS V14.00,2013-01-18 06:06:00,
2013-01-18 01:11:00,37.9,29.7,30.04,NE,45,0.0,0.0,72,0.00,,OVC,0.00,VWS V14.00,2013-01-18 06:11:00,
2013-01-18 01:17:00,37.9,29.7,30.04,NE,45,0.0,0.0,72,0.00,,OVC,0.00,VWS V14.00,2013-01-18 06:17:00,
2013-01-18 01:22:00,37.9,29.7,30.04,NE,45,0.0,0.0,72,0.00,,OVC,0.00,VWS V14.00,2013-01-18 06:22:00,
2013-01-18 01:27:00,37.9,29.7,30.05,NE,45,0.0,0.0,72,0.00,,OVC,0.00,VWS V14.00,2013-01-18 06:27:00,
2013-01-18 01:32:00,37.9,29.7,30.06,NE,45,0.0,0.0,72,0.00,,OVC,0.00,VWS V14.00,2013-01-18 06:32:00,
2013-01-18 01:37:00,37.9,29.7,30.05,NE,45,0.0,0.0,72,0.00,,OVC,0.00,VWS V14.00,2013-01-18 06:37:00,
2013-01-18 01:42:00,37.7,29.2,30.04,NE,45,0.0,0.0,71,0.00,,OVC,0.00,VWS V14.00,2013-01-18 06:42:00,
2013-01-18 01:47:00,37.7,29.2,30.05,NNE,22,0.0,0.0,71,0.00,,OVC,0.00,VWS V14.00,2013-01-18 06:47:00,
2013-01-18 01:52:00,37.7,29.2,30.05,North,0,0.0,0.0,71,0.00,,OVC,0.00,VWS V14.00,2013-01-18 06:52:00,
2013-01-18 01:57:00,37.5,29.0,30.05,North,0,0.0,0.0,71,0.00,,OVC,0.00,VWS V14.00,2013-01-18 06:57:00,
2013-01-18 02:02:00,37.5,29.0,30.04,NNE,22,0.0,0.0,71,0.00,,OVC,0.00,VWS V14.00,2013-01-18 07:02:00,
2013-01-18 02:07:00,37.5,29.0,30.04,NE,45,0.0,0.0,71,0.00,,OVC,0.00,VWS V14.00,2013-01-18 07:07:00,
2013-01-18 02:12:00,37.5,28.6,30.05,NNE,22,0.8,0.8,70,0.00,,OVC,0.00,VWS V14.00,2013-01-18 07:12:00,
2013-01-18 02:17:00,37.5,28.6,30.06,NE,45,0.0,0.0,70,0.00,,OVC,0.00,VWS V14.00,2013-01-18 07:17:00,
2013-01-18 02:22:00,37.5,28.6,30.06,NE,45,0.0,0.0,70,0.00,,OVC,0.00,VWS V14.00,2013-01-18 07:22:00,
2013-01-18 02:27:00,37.5,28.6,30.06,NE,45,0.0,0.0,70,0.00,,OVC,0.00,VWS V14.00,2013-01-18 07:27:00,
2013-01-18 02:32:00,37.4,28.9,30.07,NNE,22,0.0,0.0,71,0.00,,OVC,0.00,VWS V14.00,2013-01-18 07:32:00,
2013-01-18 02:37:00,37.5,28.6,30.07,NNE,22,0.0,0.0,70,0.00,,OVC,0.00,VWS V14.00,2013-01-18 07:37:00,
2013-01-18 02:42:00,37.4,28.5,30.05,NNE,22,0.0,0.0,70,0.00,,OVC,0.00,VWS V14.00,2013-01-18 07:42:00,
2013-01-18 02:47:00,37.4,28.5,30.07,NNE,22,0.0,0.0,70,0.00,,OVC,0.00,VWS V14.00,2013-01-18 07:47:00,
2013-01-18 02:52:00,37.2,28.0,30.07,NE,45,1.3,1.3,69,0.00,,OVC,0.00,VWS V14.00,2013-01-18 07:52:00,
2013-01-18 02:57:00,37.2,28.0,30.06,NE,45,3.3,3.3,69,0.00,,OVC,0.00,VWS V14.00,2013-01-18 07:57:00,
2013-01-18 03:02:00,37.2,28.0,30.06,NE,45,0.0,0.0,69,0.00,,OVC,0.00,VWS V14.00,2013-01-18 08:02:00,
2013-01-18 03:07:00,37.0,27.8,30.06,NE,45,0.0,0.0,69,0.00,,OVC,0.00,VWS V14.00,2013-01-18 08:07:00,
2013-01-18 03:12:00,36.8,27.6,30.05,North,0,2.0,2.0,69,0.00,,OVC,0.00,VWS V14.00,2013-01-18 08:12:00,
2013-01-18 03:17:00,36.8,27.2,30.06,NNE,22,0.6,0.6,68,0.00,,OVC,0.00,VWS V14.00,2013-01-18 08:17:00,
2013-01-18 03:22:00,36.5,27.0,30.07,NE,45,0.0,0.0,68,0.00,,OVC,0.00,VWS V14.00,2013-01-18 08:22:00,
2013-01-18 03:27:00,36.3,26.8,30.06,NE,45,1.1,1.1,68,0.00,,OVC,0.00,VWS V14.00,2013-01-18 08:27:00,
2013-01-18 03:32:00,36.3,26.8,30.07,NE,45,0.0,0.0,68,0.00,,OVC,0.00,VWS V14.00,2013-01-18 08:32:00,
2013-01-18 03:37:00,36.1,26.9,30.07,NNE,22,0.0,0.0,69,0.00,,OVC,0.00,VWS V14.00,2013-01-18 08:37:00,
2013-01-18 03:42:00,36.1,26.9,30.07,ENE,68,0.0,0.0,69,0.00,,OVC,0.00,VWS V14.00,2013-01-18 08:42:00,
2013-01-18 03:47:00,36.1,26.9,30.07,NE,45,0.0,0.0,69,0.00,,OVC,0.00,VWS V14.00,2013-01-18 08:47:00,
2013-01-18 03:52:00,35.9,26.7,30.07,ENE,68,0.0,0.0,69,0.00,,OVC,0.00,VWS V14.00,2013-01-18 08:52:00,
2013-01-18 03:57:00,35.7,26.5,30.08,NNE,22,7.8,7.8,69,0.00,,OVC,0.00,VWS V14.00,2013-01-18 08:57:00,
2013-01-18 04:02:00,35.7,26.5,30.08,NE,45,0.0,0.0,69,0.00,,OVC,0.00,VWS V14.00,2013-01-18 09:02:00,
2013-01-18 04:07:00,35.7,26.2,30.08,NE,45,2.9,2.9,68,0.00,,OVC,0.00,VWS V14.00,2013-01-18 09:07:00,
2013-01-18 04:12:00,35.4,25.9,30.09,NE,45,3.5,3.5,68,0.00,,OVC,0.00,VWS V14.00,2013-01-18 09:12:00,
2013-01-18 04:17:00,35.4,25.9,30.09,NE,45,1.5,1.5,68,0.00,,OVC,0.00,VWS V14.00,2013-01-18 09:17:00,
2013-01-18 04:22:00,35.2,25.7,30.09,NNE,22,0.0,0.0,68,0.00,,OVC,0.00,VWS V14.00,2013-01-18 09:22:00,
2013-01-18 04:27:00,34.7,25.2,30.10,NNE,22,2.2,2.2,68,0.00,,OVC,0.00,VWS V14.00,2013-01-18 09:27:00,
2013-01-18 04:32:00,34.5,25.4,30.11,NW,315,0.0,0.0,69,0.00,,OVC,0.00,VWS V14.00,2013-01-18 09:32:00,
2013-01-18 04:37:00,34.5,26.1,30.11,NNE,22,1.7,1.7,71,0.00,,OVC,0.00,VWS V14.00,2013-01-18 09:37:00,
2013-01-18 04:42:00,34.3,25.9,30.11,North,0,4.9,4.9,71,0.00,,OVC,0.00,VWS V14.00,2013-01-18 09:42:00,
2013-01-18 04:47:00,33.9,25.5,30.11,NE,45,0.0,0.0,71,0.00,,OVC,0.00,VWS V14.00,2013-01-18 09:47:00,
2013-01-18 04:52:00,33.6,25.2,30.12,NNE,22,0.0,0.0,71,0.00,,OVC,0.00,VWS V14.00,2013-01-18 09:52:00,
2013-01-18 04:57:00,33.6,25.2,30.13,NE,45,2.9,2.9,71,0.00,,OVC,0.00,VWS V14.00,2013-01-18 09:57:00,
2013-01-18 05:02:00,33.6,25.2,30.13,North,0,1.7,1.7,71,0.00,,OVC,0.00,VWS V14.00,2013-01-18 10:02:00,
2013-01-18 05:07:00,33.6,25.2,30.13,NNE,22,0.0,0.0,71,0.00,,OVC,0.00,VWS V14.00,2013-01-18 10:07:00,
2013-01-18 05:12:00,33.4,24.7,30.13,NE,45,0.8,0.8,70,0.00,,OVC,0.00,VWS V14.00,2013-01-18 10:12:00,
2013-01-18 05:17:00,33.4,24.7,30.14,NNE,22,0.0,0.0,70,0.00,,OVC,0.00,VWS V14.00,2013-01-18 10:17:00,
2013-01-18 05:22:00,33.2,24.5,30.13,NE,45,0.0,0.0,70,0.00,,OVC,0.00,VWS V14.00,2013-01-18 10:22:00,
2013-01-18 05:27:00,32.9,24.2,30.14,NE,45,0.0,0.0,70,0.00,,OVC,0.00,VWS V14.00,2013-01-18 10:27:00,
2013-01-18 05:32:00,32.9,24.2,30.15,NNE,22,0.0,0.0,70,0.00,,OVC,0.00,VWS V14.00,2013-01-18 10:32:00,
2013-01-18 05:37:00,32.9,24.2,30.15,NNE,22,0.4,0.4,70,0.00,,OVC,0.00,VWS V14.00,2013-01-18 10:37:00,
2013-01-18 05:42:00,32.9,23.9,30.16,North,0,1.7,1.7,69,0.00,,OVC,0.00,VWS V14.00,2013-01-18 10:42:00,
2013-01-18 05:47:00,32.9,23.9,30.16,NNE,22,3.1,3.1,69,0.00,,OVC,0.00,VWS V14.00,2013-01-18 10:47:00,
2013-01-18 05:52:00,32.9,23.9,30.16,North,0,0.0,0.0,69,0.00,,OVC,0.00,VWS V14.00,2013-01-18 10:52:00,
2013-01-18 05:57:00,32.7,23.3,30.17,NNE,22,3.5,3.5,68,0.00,,OVC,0.00,VWS V14.00,2013-01-18 10:57:00,
2013-01-18 06:02:00,32.7,23.3,30.17,NNE,22,0.6,0.6,68,0.00,,OVC,0.00,VWS V14.00,2013-01-18 11:02:00,
2013-01-18 06:07:00,32.5,23.1,30.18,NE,45,3.5,3.5,68,0.00,,OVC,0.00,VWS V14.00,2013-01-18 11:07:00,
2013-01-18 06:12:00,32.5,23.1,30.18,ENE,68,0.0,0.0,68,0.00,,OVC,0.00,VWS V14.00,2013-01-18 11:12:00,
2013-01-18 06:17:00,32.3,22.9,30.19,NNE,22,0.0,0.0,68,0.00,,OVC,0.00,VWS V14.00,2013-01-18 11:17:00,
2013-01-18 06:22:00,32.1,22.4,30.19,NE,45,2.2,2.2,67,0.00,,OVC,0.00,VWS V14.00,2013-01-18 11:22:00,
2013-01-18 06:26:00,32.1,22.4,30.21,NE,45,0.4,0.4,67,0.00,,OVC,0.00,VWS V14.00,2013-01-18 11:26:00,
2013-01-18 06:31:00,31.8,22.1,30.21,NNE,22,7.1,7.1,67,0.00,,OVC,0.00,VWS V14.00,2013-01-18 11:31:00,
2013-01-18 06:36:00,31.8,22.1,30.22,NE,45,1.7,1.7,67,0.00,,OVC,0.00,VWS V14.00,2013-01-18 11:36:00,
2013-01-18 06:41:00,31.8,22.1,30.22,NE,45,2.4,2.4,67,0.00,,OVC,0.00,VWS V14.00,2013-01-18 11:41:00,
2013-01-18 06:46:00,31.8,22.1,30.22,NE,45,0.0,0.0,67,0.00,,OVC,0.00,VWS V14.00,2013-01-18 11:46:00,
2013-01-18 06:51:00,31.8,22.1,30.23,NNE,22,4.9,4.9,67,0.00,,OVC,0.00,VWS V14.00,2013-01-18 11:51:00,
2013-01-18 06:56:00,31.8,22.1,30.23,ENE,68,1.1,1.1,67,0.00,,OVC,0.00,VWS V14.00,2013-01-18 11:56:00,
2013-01-18 07:01:00,31.8,22.1,30.23,NE,45,6.0,6.0,67,0.00,,OVC,0.00,VWS V14.00,2013-01-18 12:01:00,
2013-01-18 07:06:00,31.6,21.6,30.24,NNE,22,6.2,6.2,66,0.00,,OVC,0.00,VWS V14.00,2013-01-18 12:06:00,
2013-01-18 07:11:00,31.6,21.2,30.24,NNW,338,1.3,1.3,65,0.00,,OVC,0.00,VWS V14.00,2013-01-18 12:11:00,
2013-01-18 07:16:00,31.6,21.6,30.24,NNE,22,0.0,0.0,66,0.00,,OVC,0.00,VWS V14.00,2013-01-18 12:16:00,
2013-01-18 07:21:00,31.6,21.2,30.25,NNE,22,2.2,2.2,65,0.00,,OVC,0.00,VWS V14.00,2013-01-18 12:21:00,
2013-01-18 07:26:00,31.6,20.8,30.25,ENE,68,0.0,0.0,64,0.00,,OVC,0.00,VWS V14.00,2013-01-18 12:26:00,
2013-01-18 07:31:00,31.6,20.5,30.26,NW,315,2.0,2.0,63,0.00,,OVC,0.00,VWS V14.00,2013-01-18 12:31:00,
2013-01-18 07:36:00,31.2,20.5,30.26,NNE,22,9.8,9.8,64,0.00,,OVC,0.00,VWS V14.00,2013-01-18 12:36:00,
2013-01-18 07:41:00,31.6,20.8,30.27,NE,45,0.0,0.0,64,0.00,,OVC,0.00,VWS V14.00,2013-01-18 12:41:00,
2013-01-18 07:46:00,31.6,20.8,30.28,NNE,22,4.4,4.4,64,0.00,,OVC,0.00,VWS V14.00,2013-01-18 12:46:00,
2013-01-18 07:51:00,31.6,20.8,30.29,NNE,22,3.8,3.8,64,0.00,,OVC,0.00,VWS V14.00,2013-01-18 12:51:00,
2013-01-18 07:56:00,31.6,20.8,30.29,NNE,22,3.8,3.8,64,0.00,,OVC,0.00,VWS V14.00,2013-01-18 12:56:00,
2013-01-18 08:01:00,31.6,20.8,30.29,North,0,0.0,0.0,64,0.00,,OVC,0.00,VWS V14.00,2013-01-18 13:01:00,
2013-01-18 08:06:00,31.6,21.2,30.30,NE,45,1.7,1.7,65,0.00,,OVC,0.00,VWS V14.00,2013-01-18 13:06:00,
2013-01-18 08:11:00,31.2,20.1,30.31,NE,45,2.2,2.2,63,0.00,,OVC,0.00,VWS V14.00,2013-01-18 13:11:00,
2013-01-18 08:16:00,31.2,20.1,30.31,WNW,292,5.1,5.1,63,0.00,,OVC,0.00,VWS V14.00,2013-01-18 13:16:00,
2013-01-18 08:21:00,31.2,19.7,30.31,West,270,0.0,0.0,62,0.00,,OVC,0.00,VWS V14.00,2013-01-18 13:21:00,
2013-01-18 08:26:00,31.6,20.1,30.32,NE,45,13.8,13.8,62,0.00,,OVC,0.00,VWS V14.00,2013-01-18 13:26:00,
2013-01-18 08:31:00,31.6,17.3,30.32,North,0,5.5,5.5,55,0.00,,OVC,0.00,VWS V14.00,2013-01-18 13:31:00,
2013-01-18 08:36:00,31.1,16.8,30.33,NE,45,0.0,0.0,55,0.00,,OVC,0.00,VWS V14.00,2013-01-18 13:36:00,
2013-01-18 08:41:00,31.6,17.3,30.33,NNE,22,4.4,4.4,55,0.00,,OVC,0.00,VWS V14.00,2013-01-18 13:41:00,
2013-01-18 08:46:00,32.1,17.3,30.34,NNE,22,8.5,8.5,54,0.00,,OVC,0.00,VWS V14.00,2013-01-18 13:46:00,
2013-01-18 08:51:00,32.5,15.9,30.34,North,0,5.5,5.5,50,0.00,,OVC,0.00,VWS V14.00,2013-01-18 13:51:00,
2013-01-18 08:56:00,32.5,15.5,30.35,North,0,0.0,0.0,49,0.00,,OVC,0.00,VWS V14.00,2013-01-18 13:56:00,
2013-01-18 09:01:00,32.7,16.1,30.35,West,270,0.0,0.0,50,0.00,,OVC,0.00,VWS V14.00,2013-01-18 14:01:00,
2013-01-18 09:06:00,33.0,15.5,30.36,North,0,0.0,0.0,48,0.00,,OVC,0.00,VWS V14.00,2013-01-18 14:06:00,
2013-01-18 09:11:00,33.0,15.0,30.37,NNE,22,7.6,7.6,47,0.00,,OVC,0.00,VWS V14.00,2013-01-18 14:11:00,
2013-01-18 09:16:00,32.9,16.3,30.37,North,0,3.5,3.5,50,0.00,,OVC,0.00,VWS V14.00,2013-01-18 14:16:00,
2013-01-18 09:21:00,33.2,16.1,30.38,NNE,22,1.5,1.5,49,0.00,,OVC,0.00,VWS V14.00,2013-01-18 14:21:00,
2013-01-18 09:26:00,32.1,15.6,30.39,ENE,68,4.6,4.6,50,0.00,,OVC,0.00,VWS V14.00,2013-01-18 14:26:00,
2013-01-18 09:31:00,32.3,16.2,30.39,NNE,22,2.9,2.9,51,0.00,,OVC,0.00,VWS V14.00,2013-01-18 14:31:00,
2013-01-18 09:36:00,31.8,15.8,30.40,NE,45,0.0,0.0,51,0.00,,OVC,0.00,VWS V14.00,2013-01-18 14:36:00,
2013-01-18 09:41:00,32.1,16.5,30.40,NNE,22,4.4,4.4,52,0.00,,OVC,0.00,VWS V14.00,2013-01-18 14:41:00,
2013-01-18 09:46:00,32.7,15.2,30.41,North,0,8.7,8.7,48,0.00,,OVC,0.00,VWS V14.00,2013-01-18 14:46:00,
2013-01-18 09:51:00,32.9,14.4,30.41,NNE,22,11.6,11.6,46,0.00,,OVC,0.00,VWS V14.00,2013-01-18 14:51:00,
2013-01-18 09:56:00,33.2,14.7,30.41,NW,315,2.9,2.9,46,0.00,,OVC,0.00,VWS V14.00,2013-01-18 14:56:00,
2013-01-18 10:01:00,33.4,14.4,30.42,NE,45,4.0,4.0,45,0.00,,OVC,0.00,VWS V14.00,2013-01-18 15:01:00,
2013-01-18 10:06:00,33.9,15.3,30.41,NNE,22,0.0,0.0,46,0.00,,OVC,0.00,VWS V14.00,2013-01-18 15:06:00,
2013-01-18 10:11:00,33.8,14.7,30.41,NE,45,4.6,4.6,45,0.00,,OVC,0.00,VWS V14.00,2013-01-18 15:11:00,
2013-01-18 10:16:00,33.4,13.9,30.42,North,0,3.3,3.3,44,0.00,,OVC,0.00,VWS V14.00,2013-01-18 15:16:00,
2013-01-18 10:21:00,33.0,14.0,30.42,NNE,22,6.2,6.2,45,0.00,,OVC,0.00,VWS V14.00,2013-01-18 15:21:00,
2013-01-18 10:26:00,33.2,13.7,30.42,NNE,22,6.9,6.9,44,0.00,,OVC,0.00,VWS V14.00,2013-01-18 15:26:00,
2013-01-18 10:31:00,33.6,14.0,30.42,NNE,22,0.0,0.0,44,0.00,,OVC,0.00,VWS V14.00,2013-01-18 15:31:00,
2013-01-18 10:36:00,33.8,13.7,30.42,NE,45,11.1,11.1,43,0.00,,OVC,0.00,VWS V14.00,2013-01-18 15:36:00,
2013-01-18 10:41:00,33.4,13.3,30.42,North,0,9.6,9.6,43,0.00,,OVC,0.00,VWS V14.00,2013-01-18 15:41:00,
2013-01-18 10:46:00,33.0,11.9,30.42,NNW,338,1.3,1.3,41,0.00,,OVC,0.00,VWS V14.00,2013-01-18 15:46:00,
2013-01-18 10:51:00,33.4,13.3,30.42,NNE,22,5.8,5.8,43,0.00,,OVC,0.00,VWS V14.00,2013-01-18 15:51:00,
2013-01-18 10:56:00,33.4,12.2,30.42,NE,45,5.5,5.5,41,0.00,,OVC,0.00,VWS V14.00,2013-01-18 15:56:00,
2013-01-18 11:01:00,33.2,12.6,30.42,NNW,338,5.3,5.3,42,0.00,,OVC,0.00,VWS V14.00,2013-01-18 16:01:00,
2013-01-18 11:06:00,33.6,13.5,30.42,NNE,22,8.0,8.0,43,0.00,,OVC,0.00,VWS V14.00,2013-01-18 16:06:00,
2013-01-18 11:11:00,33.4,12.2,30.42,WSW,248,2.2,2.2,41,0.00,,OVC,0.00,VWS V14.00,2013-01-18 16:11:00,
2013-01-18 11:16:00,33.9,13.2,30.42,NNW,338,1.3,1.3,42,0.00,,OVC,0.00,VWS V14.00,2013-01-18 16:16:00,
2013-01-18 11:21:00,33.9,13.2,30.42,NW,315,0.0,0.0,42,0.00,,OVC,0.00,VWS V14.00,2013-01-18 16:21:00,
2013-01-18 11:26:00,34.3,13.6,30.42,NE,45,2.2,2.2,42,0.00,,OVC,0.00,VWS V14.00,2013-01-18 16:26:00,
2013-01-18 11:31:00,34.3,13.6,30.42,NE,45,4.4,4.4,42,0.00,,OVC,0.00,VWS V14.00,2013-01-18 16:31:00,
2013-01-18 11:36:00,34.3,13.6,30.42,NNW,338,0.0,0.0,42,0.00,,OVC,0.00,VWS V14.00,2013-01-18 16:36:00,
2013-01-18 11:41:00,34.1,14.0,30.42,West,270,0.0,0.0,43,0.00,,OVC,0.00,VWS V14.00,2013-01-18 16:41:00,
2013-01-18 11:46:00,34.3,14.1,30.42,NNE,22,10.7,10.7,43,0.00,,OVC,0.00,VWS V14.00,2013-01-18 16:46:00,
2013-01-18 11:51:00,33.6,13.5,30.42,North,0,2.9,2.9,43,0.00,,OVC,0.00,VWS V14.00,2013-01-18 16:51:00,
2013-01-18 11:56:00,34.3,14.7,30.42,West,270,0.0,0.0,44,0.00,,OVC,0.00,VWS V14.00,2013-01-18 16:56:00,
2013-01-18 12:01:00,35.0,14.8,30.42,NE,45,3.1,3.1,43,0.00,,OVC,0.00,VWS V14.00,2013-01-18 17:01:00,
2013-01-18 12:06:00,34.8,14.1,30.43,NNE,22,5.8,5.8,42,0.00,,OVC,0.00,VWS V14.00,2013-01-18 17:06:00,
2013-01-18 12:11:00,34.7,15.0,30.42,NNW,338,0.0,0.0,44,0.00,,OVC,0.00,VWS V14.00,2013-01-18 17:11:00,
2013-01-18 12:16:00,34.5,13.8,30.42,NNE,22,4.2,4.2,42,0.00,,OVC,0.00,VWS V14.00,2013-01-18 17:16:00,
2013-01-18 12:21:00,34.5,14.3,30.42,NNW,338,4.2,4.2,43,0.00,,OVC,0.00,VWS V14.00,2013-01-18 17:21:00,
2013-01-18 12:26:00,34.5,13.8,30.42,NE,45,1.5,1.5,42,0.00,,OVC,0.00,VWS V14.00,2013-01-18 17:26:00,
2013-01-18 12:31:00,34.5,14.3,30.42,North,0,6.2,6.2,43,0.00,,OVC,0.00,VWS V14.00,2013-01-18 17:31:00,
2013-01-18 12:36:00,34.3,13.6,30.41,West,270,0.0,0.0,42,0.00,,OVC,0.00,VWS V14.00,2013-01-18 17:36:00,
2013-01-18 12:41:00,34.3,13.6,30.42,NE,45,1.1,1.1,42,0.00,,OVC,0.00,VWS V14.00,2013-01-18 17:41:00,
2013-01-18 12:46:00,34.3,13.6,30.41,NNE,22,8.0,8.0,42,0.00,,OVC,0.00,VWS V14.00,2013-01-18 17:46:00,
2013-01-18 12:51:00,34.3,13.1,30.42,West,270,0.8,0.8,41,0.00,,OVC,0.00,VWS V14.00,2013-01-18 17:51:00,
2013-01-18 12:56:00,34.5,13.8,30.42,WNW,292,0.0,0.0,42,0.00,,OVC,0.00,VWS V14.00,2013-01-18 17:56:00,
2013-01-18 13:01:00,34.7,14.5,30.42,NE,45,0.0,0.0,43,0.00,,OVC,0.00,VWS V14.00,2013-01-18 18:01:00,
2013-01-18 13:06:00,34.3,13.6,30.42,NNE,22,3.5,3.5,42,0.00,,OVC,0.00,VWS V14.00,2013-01-18 18:06:00,
2013-01-18 13:11:00,34.3,13.6,30.42,NNW,338,0.0,0.0,42,0.00,,OVC,0.00,VWS V14.00,2013-01-18 18:11:00,
2013-01-18 13:16:00,34.3,14.1,30.42,NNW,338,3.1,3.1,43,0.00,,OVC,0.00,VWS V14.00,2013-01-18 18:16:00,
2013-01-18 13:21:00,34.3,13.6,30.42,WNW,292,0.6,0.6,42,0.00,,OVC,0.00,VWS V14.00,2013-01-18 18:21:00,
2013-01-18 13:26:00,33.6,12.4,30.41,NNE,22,0.0,0.0,41,0.00,,OVC,0.00,VWS V14.00,2013-01-18 18:26:00,
2013-01-18 13:31:00,33.2,12.6,30.41,WNW,292,2.0,2.0,42,0.00,,OVC,0.00,VWS V14.00,2013-01-18 18:31:00,
2013-01-18 13:36:00,33.6,13.5,30.42,WNW,292,4.2,4.2,43,0.00,,OVC,0.00,VWS V14.00,2013-01-18 18:36:00,
2013-01-18 13:41:00,33.9,13.8,30.42,NE,45,7.6,7.6,43,0.00,,OVC,0.00,VWS V14.00,2013-01-18 18:41:00,
2013-01-18 13:46:00,33.6,13.0,30.42,NNW,338,0.0,0.0,42,0.00,,OVC,0.00,VWS V14.00,2013-01-18 18:46:00,
2013-01-18 13:51:00,33.0,11.9,30.42,NNW,338,8.5,8.5,41,0.00,,OVC,0.00,VWS V14.00,2013-01-18 18:51:00,
2013-01-18 13:56:00,33.0,12.4,30.42,West,270,0.0,0.0,42,0.00,,OVC,0.00,VWS V14.00,2013-01-18 18:56:00,
2013-01-18 14:01:00,33.0,12.4,30.43,West,270,0.0,0.0,42,0.00,,OVC,0.00,VWS V14.00,2013-01-18 19:01:00,
2013-01-18 14:06:00,33.6,13.5,30.43,North,0,0.0,0.0,43,0.00,,OVC,0.00,VWS V14.00,2013-01-18 19:06:00,
2013-01-18 14:11:00,33.6,13.5,30.44,NNW,338,2.6,2.6,43,0.00,,OVC,0.00,VWS V14.00,2013-01-18 19:11:00,
2013-01-18 14:16:00,33.6,12.4,30.44,WNW,292,0.0,0.0,41,0.00,,OVC,0.00,VWS V14.00,2013-01-18 19:16:00,
2013-01-18 14:21:00,33.4,12.8,30.43,WNW,292,1.1,1.1,42,0.00,,OVC,0.00,VWS V14.00,2013-01-18 19:21:00,
2013-01-18 14:26:00,33.6,13.0,30.43,NE,45,8.2,8.2,42,0.00,,OVC,0.00,VWS V14.00,2013-01-18 19:26:00,
2013-01-18 14:31:00,33.4,10.5,30.43,NNW,338,4.9,4.9,38,0.00,,OVC,0.00,VWS V14.00,2013-01-18 19:31:00,
2013-01-18 14:36:00,32.9,10.1,30.43,NNE,22,2.0,2.0,38,0.00,,OVC,0.00,VWS V14.00,2013-01-18 19:36:00,
2013-01-18 14:41:00,32.5,10.3,30.43,NNW,338,4.0,4.0,39,0.00,,OVC,0.00,VWS V14.00,2013-01-18 19:41:00,
2013-01-18 14:46:00,32.3,10.7,30.43,NNE,22,1.7,1.7,40,0.00,,OVC,0.00,VWS V14.00,2013-01-18 19:46:00,
2013-01-18 14:51:00,32.1,9.9,30.43,ENE,68,0.8,0.8,39,0.00,,OVC,0.00,VWS V14.00,2013-01-18 19:51:00,
2013-01-18 14:56:00,32.3,10.7,30.44,North,0,3.3,3.3,40,0.00,,OVC,0.00,VWS V14.00,2013-01-18 19:56:00,
2013-01-18 15:01:00,32.5,11.4,30.44,ENE,68,0.0,0.0,41,0.00,,OVC,0.00,VWS V14.00,2013-01-18 20:01:00,
2013-01-18 15:06:00,32.7,11.1,30.44,WNW,292,1.5,1.5,40,0.00,,OVC,0.00,VWS V14.00,2013-01-18 20:06:00,
2013-01-18 15:11:00,32.7,11.6,30.45,NW,315,0.0,0.0,41,0.00,,OVC,0.00,VWS V14.00,2013-01-18 20:11:00,
2013-01-18 15:16:00,32.7,11.6,30.45,SW,225,0.0,0.0,41,0.00,,OVC,0.00,VWS V14.00,2013-01-18 20:16:00,
2013-01-18 15:21:00,32.7,11.1,30.45,WNW,292,0.0,0.0,40,0.00,,OVC,0.00,VWS V14.00,2013-01-18 20:21:00,
2013-01-18 15:26:00,32.7,11.1,30.44,NNE,22,0.0,0.0,40,0.00,,OVC,0.00,VWS V14.00,2013-01-18 20:26:00,
2013-01-18 15:31:00,32.5,10.9,30.44,NNW,338,0.0,0.0,40,0.00,,OVC,0.00,VWS V14.00,2013-01-18 20:31:00,
2013-01-18 15:36:00,32.5,11.4,30.45,NNW,338,0.0,0.0,41,0.00,,OVC,0.00,VWS V14.00,2013-01-18 20:36:00,
2013-01-18 15:41:00,32.5,11.4,30.45,NW,315,0.0,0.0,41,0.00,,OVC,0.00,VWS V14.00,2013-01-18 20:41:00,
2013-01-18 15:46:00,32.3,10.7,30.44,NNE,22,0.0,0.0,40,0.00,,OVC,0.00,VWS V14.00,2013-01-18 20:46:00,
2013-01-18 15:51:00,32.1,11.1,30.45,NNW,338,0.0,0.0,41,0.00,,OVC,0.00,VWS V14.00,2013-01-18 20:51:00,
2013-01-18 15:56:00,32.0,11.0,30.45,NW,315,1.1,1.1,41,0.00,,OVC,0.00,VWS V14.00,2013-01-18 20:56:00,
2013-01-18 16:01:00,31.8,10.8,30.45,NNW,338,0.0,0.0,41,0.00,,OVC,0.00,VWS V14.00,2013-01-18 21:01:00,
2013-01-18 16:06:00,31.6,10.6,30.45,NW,315,0.0,0.0,41,0.00,,OVC,0.00,VWS V14.00,2013-01-18 21:06:00,
2013-01-18 16:11:00,31.6,10.6,30.45,WNW,292,0.0,0.0,41,0.00,,OVC,0.00,VWS V14.00,2013-01-18 21:11:00,
2013-01-18 16:16:00,31.4,11.5,30.45,West,270,0.0,0.0,43,0.00,,OVC,0.00,VWS V14.00,2013-01-18 21:16:00,
2013-01-18 16:21:00,31.2,11.8,30.45,West,270,0.0,0.0,44,0.00,,OVC,0.00,VWS V14.00,2013-01-18 21:21:00,
2013-01-18 16:26:00,31.1,12.2,30.46,WSW,248,0.0,0.0,45,0.00,,OVC,0.00,VWS V14.00,2013-01-18 21:26:00,
2013-01-18 16:31:00,30.9,12.1,30.46,WSW,248,0.0,0.0,45,0.00,,OVC,0.00,VWS V14.00,2013-01-18 21:31:00,
2013-01-18 16:36:00,30.7,11.9,30.47,WNW,292,0.6,0.6,45,0.00,,OVC,0.00,VWS V14.00,2013-01-18 21:36:00,
2013-01-18 16:41:00,30.3,11.5,30.47,West,270,0.0,0.0,45,0.00,,OVC,0.00,VWS V14.00,2013-01-18 21:41:00,
2013-01-18 16:46:00,30.0,11.2,30.47,West,270,0.0,0.0,45,0.00,,OVC,0.00,VWS V14.00,2013-01-18 21:46:00,
2013-01-18 16:51:00,29.8,12.0,30.47,WNW,292,0.0,0.0,47,0.00,,OVC,0.00,VWS V14.00,2013-01-18 21:51:00,
2013-01-18 16:56:00,29.4,12.1,30.47,West,270,0.0,0.0,48,0.00,,OVC,0.00,VWS V14.00,2013-01-18 21:56:00,
2013-01-18 17:01:00,29.3,12.5,30.47,WNW,292,0.0,0.0,49,0.00,,OVC,0.00,VWS V14.00,2013-01-18 22:01:00,
2013-01-18 17:06:00,28.9,12.1,30.48,West,270,0.0,0.0,49,0.00,,OVC,0.00,VWS V14.00,2013-01-18 22:06:00,
2013-01-18 17:11:00,28.9,12.6,30.48,WNW,292,0.0,0.0,50,0.00,,OVC,0.00,VWS V14.00,2013-01-18 22:11:00,
2013-01-18 17:16:00,28.7,12.4,30.48,WNW,292,0.6,0.6,50,0.00,,OVC,0.00,VWS V14.00,2013-01-18 22:16:00,
2013-01-18 17:21:00,28.5,12.2,30.49,NW,315,0.0,0.0,50,0.00,,OVC,0.00,VWS V14.00,2013-01-18 22:21:00,
2013-01-18 17:26:00,28.2,12.4,30.49,West,270,0.0,0.0,51,0.00,,OVC,0.00,VWS V14.00,2013-01-18 22:26:00,
2013-01-18 17:31:00,28.2,12.4,30.48,West,270,0.0,0.0,51,0.00,,OVC,0.00,VWS V14.00,2013-01-18 22:31:00,
2013-01-18 17:36:00,28.0,13.5,30.49,West,270,0.0,0.0,54,0.00,,OVC,0.00,VWS V14.00,2013-01-18 22:36:00,
2013-01-18 17:41:00,28.0,13.5,30.49,West,270,0.0,0.0,54,0.00,,OVC,0.00,VWS V14.00,2013-01-18 22:41:00,
2013-01-18 17:46:00,27.8,13.8,30.49,West,270,0.0,0.0,55,0.00,,OVC,0.00,VWS V14.00,2013-01-18 22:46:00,
2013-01-18 17:51:00,27.6,14.0,30.49,West,270,0.0,0.0,56,0.00,,OVC,0.00,VWS V14.00,2013-01-18 22:51:00,
2013-01-18 17:56:00,27.6,13.6,30.49,West,270,0.0,0.0,55,0.00,,OVC,0.00,VWS V14.00,2013-01-18 22:56:00,
2013-01-18 18:01:00,27.6,14.0,30.49,West,270,0.0,0.0,56,0.00,,OVC,0.00,VWS V14.00,2013-01-18 23:01:00,
2013-01-18 18:06:00,27.5,14.7,30.49,West,270,0.0,0.0,58,0.00,,OVC,0.00,VWS V14.00,2013-01-18 23:06:00,
2013-01-18 18:11:00,27.5,15.1,30.49,West,270,0.0,0.0,59,0.00,,OVC,0.00,VWS V14.00,2013-01-18 23:11:00,
2013-01-18 18:16:00,27.5,15.4,30.50,West,270,0.0,0.0,60,0.00,,OVC,0.00,VWS V14.00,2013-01-18 23:16:00,
2013-01-18 18:21:00,27.3,15.3,30.49,West,270,0.0,0.0,60,0.00,,OVC,0.00,VWS V14.00,2013-01-18 23:21:00,
2013-01-18 18:26:00,27.1,15.1,30.50,West,270,0.0,0.0,60,0.00,,OVC,0.00,VWS V14.00,2013-01-18 23:26:00,
2013-01-18 18:31:00,27.1,15.4,30.49,West,270,0.0,0.0,61,0.00,,OVC,0.00,VWS V14.00,2013-01-18 23:31:00,
2013-01-18 18:36:00,27.1,15.8,30.49,West,270,0.0,0.0,62,0.00,,OVC,0.00,VWS V14.00,2013-01-18 23:36:00,
2013-01-18 18:41:00,26.9,15.3,30.50,West,270,0.0,0.0,61,0.00,,OVC,0.00,VWS V14.00,2013-01-18 23:41:00,
2013-01-18 18:46:00,26.9,15.6,30.50,West,270,0.0,0.0,62,0.00,,OVC,0.00,VWS V14.00,2013-01-18 23:46:00,
2013-01-18 18:51:00,26.7,15.8,30.51,West,270,0.0,0.0,63,0.00,,OVC,0.00,VWS V14.00,2013-01-18 23:51:00,
2013-01-18 18:56:00,26.7,16.2,30.51,West,270,0.0,0.0,64,0.00,,OVC,0.00,VWS V14.00,2013-01-18 23:56:00,
2013-01-18 19:01:00,26.7,16.2,30.51,West,270,0.0,0.0,64,0.00,,OVC,0.00,VWS V14.00,2013-01-19 00:01:00,
2013-01-18 19:06:00,26.7,16.5,30.51,West,270,0.0,0.0,65,0.00,,OVC,0.00,VWS V14.00,2013-01-19 00:06:00,
2013-01-18 19:11:00,26.7,16.5,30.51,West,270,0.0,0.0,65,0.00,,OVC,0.00,VWS V14.00,2013-01-19 00:11:00,
2013-01-18 19:16:00,26.7,16.5,30.51,West,270,0.0,0.0,65,0.00,,OVC,0.00,VWS V14.00,2013-01-19 00:16:00,
2013-01-18 19:21:00,26.7,16.5,30.51,West,270,0.0,0.0,65,0.00,,OVC,0.00,VWS V14.00,2013-01-19 00:21:00,
2013-01-18 19:26:00,26.9,17.4,30.50,West,270,0.0,0.0,67,0.00,,OVC,0.00,VWS V14.00,2013-01-19 00:26:00,
2013-01-18 19:31:00,26.9,17.4,30.51,West,270,0.0,0.0,67,0.00,,OVC,0.00,VWS V14.00,2013-01-19 00:31:00,
2013-01-18 19:36:00,26.7,17.2,30.50,West,270,0.0,0.0,67,0.00,,OVC,0.00,VWS V14.00,2013-01-19 00:36:00,
2013-01-18 19:41:00,26.7,17.6,30.51,West,270,0.0,0.0,68,0.00,,OVC,0.00,VWS V14.00,2013-01-19 00:41:00,
2013-01-18 19:46:00,26.6,17.5,30.50,West,270,0.0,0.0,68,0.00,,OVC,0.00,VWS V14.00,2013-01-19 00:46:00,
2013-01-18 19:51:00,26.6,17.5,30.50,West,270,0.0,0.0,68,0.00,,OVC,0.00,VWS V14.00,2013-01-19 00:51:00,
2013-01-18 19:57:00,26.4,17.3,30.50,West,270,0.0,0.0,68,0.00,,OVC,0.00,VWS V14.00,2013-01-19 00:57:00,
2013-01-18 20:02:00,26.4,17.6,30.49,West,270,0.0,0.0,69,0.00,,OVC,0.00,VWS V14.00,2013-01-19 01:02:00,
2013-01-18 20:06:00,26.4,17.6,30.49,West,270,0.0,0.0,69,0.00,,OVC,0.00,VWS V14.00,2013-01-19 01:06:00,
2013-01-18 20:12:00,26.4,17.6,30.49,West,270,0.0,0.0,69,0.00,,OVC,0.00,VWS V14.00,2013-01-19 01:12:00,
2013-01-18 20:17:00,26.4,17.6,30.49,West,270,0.0,0.0,69,0.00,,OVC,0.00,VWS V14.00,2013-01-19 01:17:00,
2013-01-18 20:22:00,26.4,17.6,30.49,West,270,0.0,0.0,69,0.00,,OVC,0.00,VWS V14.00,2013-01-19 01:22:00,
2013-01-18 20:27:00,26.2,17.4,30.49,West,270,0.0,0.0,69,0.00,,OVC,0.00,VWS V14.00,2013-01-19 01:27:00,
2013-01-18 20:32:00,26.2,17.8,30.49,West,270,0.0,0.0,70,0.00,,OVC,0.00,VWS V14.00,2013-01-19 01:32:00,
2013-01-18 20:37:00,26.2,17.8,30.49,West,270,0.0,0.0,70,0.00,,OVC,0.00,VWS V14.00,2013-01-19 01:37:00,
2013-01-18 20:42:00,26.2,18.1,30.49,West,270,0.0,0.0,71,0.00,,OVC,0.00,VWS V14.00,2013-01-19 01:42:00,
2013-01-18 20:47:00,26.2,18.1,30.49,West,270,0.0,0.0,71,0.00,,OVC,0.00,VWS V14.00,2013-01-19 01:47:00,
2013-01-18 20:52:00,26.2,18.1,30.49,West,270,0.0,0.0,71,0.00,,OVC,0.00,VWS V14.00,2013-01-19 01:52:00,
2013-01-18 20:57:00,26.2,18.1,30.49,West,270,0.0,0.0,71,0.00,,OVC,0.00,VWS V14.00,2013-01-19 01:57:00,
2013-01-18 21:02:00,26.2,18.1,30.48,West,270,0.0,0.0,71,0.00,,OVC,0.00,VWS V14.00,2013-01-19 02:02:00,
2013-01-18 21:07:00,26.0,18.2,30.48,West,270,0.0,0.0,72,0.00,,OVC,0.00,VWS V14.00,2013-01-19 02:07:00,
2013-01-18 21:12:00,26.0,18.2,30.48,West,270,0.0,0.0,72,0.00,,OVC,0.00,VWS V14.00,2013-01-19 02:12:00,
2013-01-18 21:17:00,26.0,18.2,30.48,West,270,0.0,0.0,72,0.00,,OVC,0.00,VWS V14.00,2013-01-19 02:17:00,
2013-01-18 21:22:00,25.8,18.0,30.48,West,270,0.0,0.0,72,0.00,,OVC,0.00,VWS V14.00,2013-01-19 02:22:00,
2013-01-18 21:27:00,25.8,18.0,30.48,West,270,0.0,0.0,72,0.00,,OVC,0.00,VWS V14.00,2013-01-19 02:27:00,
2013-01-18 21:32:00,25.8,18.0,30.48,WSW,248,0.0,0.0,72,0.00,,OVC,0.00,VWS V14.00,2013-01-19 02:32:00,
2013-01-18 21:37:00,25.8,18.0,30.48,WSW,248,0.0,0.0,72,0.00,,OVC,0.00,VWS V14.00,2013-01-19 02:37:00,
2013-01-18 21:42:00,25.8,18.0,30.48,WSW,248,0.0,0.0,72,0.00,,OVC,0.00,VWS V14.00,2013-01-19 02:42:00,
2013-01-18 21:47:00,25.8,18.4,30.48,WSW,248,0.0,0.0,73,0.00,,OVC,0.00,VWS V14.00,2013-01-19 02:47:00,
2013-01-18 21:52:00,25.8,18.4,30.48,WSW,248,0.0,0.0,73,0.00,,OVC,0.00,VWS V14.00,2013-01-19 02:52:00,
2013-01-18 21:57:00,25.8,18.0,30.48,WSW,248,0.0,0.0,72,0.00,,OVC,0.00,VWS V14.00,2013-01-19 02:57:00,
2013-01-18 22:02:00,25.8,18.4,30.49,WSW,248,0.0,0.0,73,0.00,,OVC,0.00,VWS V14.00,2013-01-19 03:02:00,
2013-01-18 22:07:00,25.8,18.4,30.48,WSW,248,0.0,0.0,73,0.00,,OVC,0.00,VWS V14.00,2013-01-19 03:07:00,
2013-01-18 22:12:00,25.7,18.3,30.48,WSW,248,0.0,0.0,73,0.00,,OVC,0.00,VWS V14.00,2013-01-19 03:12:00,
2013-01-18 22:17:00,25.7,18.3,30.48,WSW,248,0.0,0.0,73,0.00,,OVC,0.00,VWS V14.00,2013-01-19 03:17:00,
2013-01-18 22:22:00,25.7,18.3,30.47,WSW,248,0.0,0.0,73,0.00,,OVC,0.00,VWS V14.00,2013-01-19 03:22:00,
2013-01-18 22:27:00,25.7,18.3,30.47,WSW,248,0.0,0.0,73,0.00,,OVC,0.00,VWS V14.00,2013-01-19 03:27:00,
2013-01-18 22:32:00,25.7,18.3,30.47,SW,225,0.0,0.0,73,0.00,,OVC,0.00,VWS V14.00,2013-01-19 03:32:00,
2013-01-18 22:37:00,25.7,18.3,30.47,SW,225,0.0,0.0,73,0.00,,OVC,0.00,VWS V14.00,2013-01-19 03:37:00,
2013-01-18 22:42:00,25.5,17.8,30.46,WSW,248,0.8,0.8,72,0.00,,OVC,0.00,VWS V14.00,2013-01-19 03:42:00,
2013-01-18 22:47:00,25.7,17.9,30.46,WSW,248,0.0,0.0,72,0.00,,OVC,0.00,VWS V14.00,2013-01-19 03:47:00,
2013-01-18 22:52:00,25.7,17.9,30.46,WSW,248,0.0,0.0,72,0.00,,OVC,0.00,VWS V14.00,2013-01-19 03:52:00,
2013-01-18 22:57:00,25.7,18.3,30.46,WSW,248,0.0,0.0,73,0.00,,OVC,0.00,VWS V14.00,2013-01-19 03:57:00,
2013-01-18 23:02:00,25.8,18.4,30.46,WSW,248,0.0,0.0,73,0.00,,OVC,0.00,VWS V14.00,2013-01-19 04:02:00,
2013-01-18 23:07:00,25.8,18.4,30.46,WSW,248,0.0,0.0,73,0.00,,OVC,0.00,VWS V14.00,2013-01-19 04:07:00,
2013-01-18 23:12:00,25.8,18.0,30.46,WSW,248,0.0,0.0,72,0.00,,OVC,0.00,VWS V14.00,2013-01-19 04:12:00,
2013-01-18 23:17:00,25.8,18.0,30.45,WSW,248,0.0,0.0,72,0.00,,OVC,0.00,VWS V14.00,2013-01-19 04:17:00,
2013-01-18 23:22:00,25.8,18.0,30.45,SW,225,0.0,0.0,72,0.00,,OVC,0.00,VWS V14.00,2013-01-19 04:22:00,
2013-01-18 23:27:00,25.8,18.0,30.45,SW,225,1.3,1.3,72,0.00,,OVC,0.00,VWS V14.00,2013-01-19 04:27:00,
2013-01-18 23:32:00,25.8,18.0,30.44,SW,225,0.0,0.0,72,0.00,,OVC,0.00,VWS V14.00,2013-01-19 04:32:00,
2013-01-18 23:37:00,25.8,17.7,30.44,WSW,248,0.0,0.0,71,0.00,,OVC,0.00,VWS V14.00,2013-01-19 04:37:00,
2013-01-18 23:42:00,26.0,18.2,30.44,WSW,248,0.0,0.0,72,0.00,,OVC,0.00,VWS V14.00,2013-01-19 04:42:00,
2013-01-18 23:47:00,26.2,18.4,30.44,WSW,248,0.0,0.0,72,0.00,,OVC,0.00,VWS V14.00,2013-01-19 04:47:00,
2013-01-18 23:52:00,26.2,18.1,30.44,WSW,248,0.0,0.0,71,0.00,,OVC,0.00,VWS V14.00,2013-01-19 04:52:00,
2013-01-18 23:57:00,26.2,18.4,30.44,WSW,248,0.0,0.0,72,0.00,,OVC,0.00,VWS V14.00,2013-01-19 04:57:00,